Time;durP1;ratioP1;P1;durP2;ratioP2;P2;SDS_P1;SDS_P2;PMS_P1;PMS_P2;Temp;Humidity;BMP_temperature;BMP_pressure;BME280_temperature;BME280_humidity;BME280_pressure;Samples;Min_cycle;Max_cycle;Signal;HPM_P1;HPM_P2
2023/05/14 00:00:40;;;;;;;9.13;6.28;;;;;;;15.13;69.41;101766.06;5108133;27;20046;-71
2023/05/14 00:03:08;;;;;;;8.77;7.30;;;;;;;15.09;70.03;101760.91;5104489;27;20032;-72
2023/05/14 00:05:35;;;;;;;7.90;6.68;;;;;;;15.03;70.47;101762.88;5133371;27;20079;-72
2023/05/14 00:08:02;;;;;;;12.73;6.90;;;;;;;14.97;70.47;101755.09;5121821;27;20128;-72
2023/05/14 00:10:29;;;;;;;8.98;6.18;;;;;;;14.89;71.11;101758.03;5121114;27;20548;-72
2023/05/14 00:12:56;;;;;;;7.65;6.43;;;;;;;14.83;71.14;101766.19;5118516;27;20065;-71
2023/05/14 00:15:23;;;;;;;10.25;6.97;;;;;;;14.75;71.67;101762.94;5111586;27;20082;-71
2023/05/14 00:17:50;;;;;;;9.85;6.95;;;;;;;14.70;71.37;101762.22;5110810;27;20087;-71
2023/05/14 00:20:17;;;;;;;7.78;6.90;;;;;;;14.64;72.02;101765.03;5116857;27;20126;-72
2023/05/14 00:22:44;;;;;;;10.05;7.10;;;;;;;14.57;72.19;101759.94;5101542;27;20035;-71
2023/05/14 00:25:11;;;;;;;9.10;7.15;;;;;;;14.51;72.61;101756.63;5104855;27;20040;-71
2023/05/14 00:27:38;;;;;;;9.18;6.85;;;;;;;14.45;72.92;101755.88;5110652;27;20096;-71
2023/05/14 00:30:06;;;;;;;11.23;7.30;;;;;;;14.38;73.24;101756.16;5131131;27;20077;-71
2023/05/14 00:32:34;;;;;;;9.63;7.15;;;;;;;14.34;73.81;101754.50;5122771;27;20046;-71
2023/05/14 00:35:03;;;;;;;7.90;7.00;;;;;;;14.28;74.53;101761.75;5109631;27;20354;-71
2023/05/14 00:37:30;;;;;;;11.00;7.55;;;;;;;14.21;74.75;101760.19;5122954;27;20249;-71
2023/05/14 00:39:57;;;;;;;10.65;7.90;;;;;;;14.17;74.71;101753.25;5108519;27;20075;-71
2023/05/14 00:42:26;;;;;;;9.50;7.63;;;;;;;14.13;75.03;101751.59;5110228;27;20036;-71
2023/05/14 00:44:53;;;;;;;10.02;8.10;;;;;;;14.09;75.60;101749.97;5121354;27;20039;-71
2023/05/14 00:47:20;;;;;;;9.68;7.93;;;;;;;14.07;75.46;101749.16;5124901;27;20039;-71
2023/05/14 00:49:47;;;;;;;11.65;8.55;;;;;;;14.02;75.70;101745.75;5123514;27;20552;-71
2023/05/14 00:52:15;;;;;;;10.93;8.40;;;;;;;13.97;76.16;101737.94;5125918;27;20044;-71
2023/05/14 00:54:46;;;;;;;9.15;8.25;;;;;;;13.92;76.16;101734.56;5127497;27;20032;-71
2023/05/14 00:57:14;;;;;;;10.98;8.38;;;;;;;13.89;76.65;101732.00;5143187;27;20122;-71
2023/05/14 00:59:41;;;;;;;11.13;8.70;;;;;;;13.82;77.01;101734.84;5120025;27;20679;-71
2023/05/14 01:02:10;;;;;;;10.48;9.10;;;;;;;13.78;77.25;101735.00;5143328;27;20070;-70
2023/05/14 01:04:38;;;;;;;11.25;9.35;;;;;;;13.74;77.70;101731.53;5121155;27;20084;-70
2023/05/14 01:07:29;;;;;;;12.43;9.02;;;;;;;13.70;78.00;101731.66;5123953;27;20043;-71
2023/05/14 01:10:22;;;;;;;10.13;8.80;;;;;;;13.64;78.34;101744.19;5122592;27;20563;-71
2023/05/14 01:13:19;;;;;;;12.65;9.77;;;;;;;13.59;78.85;101735.50;5150999;27;20044;-71
2023/05/14 01:15:48;;;;;;;12.57;10.00;;;;;;;13.54;79.27;101736.53;5136372;27;20795;-71
2023/05/14 01:18:18;;;;;;;11.63;9.98;;;;;;;13.54;79.42;101737.44;5103413;27;20036;-71
2023/05/14 01:20:50;;;;;;;10.70;9.60;;;;;;;13.50;79.54;101735.75;5108126;27;20035;-71
2023/05/14 01:23:17;;;;;;;12.57;10.07;;;;;;;13.43;79.54;101735.06;5108564;27;20107;-71
2023/05/14 01:25:44;;;;;;;11.77;10.45;;;;;;;13.44;80.00;101733.31;5115536;27;20070;-71
2023/05/14 01:28:17;;;;;;;13.32;10.65;;;;;;;13.42;79.83;101743.94;5121057;27;20139;-72
2023/05/14 01:31:05;;;;;;;14.18;10.90;;;;;;;13.38;79.97;101739.59;5109438;27;20478;-71
2023/05/14 01:33:35;;;;;;;14.82;11.45;;;;;;;13.33;79.85;101731.78;5112485;27;20035;-71
2023/05/14 01:36:03;;;;;;;17.55;11.20;;;;;;;13.32;80.00;101731.84;5124215;27;20125;-70
2023/05/14 01:38:32;;;;;;;20.77;12.43;;;;;;;13.28;80.09;101732.81;5132313;27;20552;-70
2023/05/14 01:41:01;;;;;;;18.30;12.48;;;;;;;13.24;80.08;101725.88;5130663;27;20036;-71
2023/05/14 01:43:30;;;;;;;15.38;11.85;;;;;;;13.19;80.46;101729.53;5119885;27;20040;-71
2023/05/14 01:45:57;;;;;;;15.85;11.63;;;;;;;13.14;80.74;101725.25;5126708;27;20578;-70
2023/05/14 01:48:24;;;;;;;15.30;11.85;;;;;;;13.11;80.35;101735.91;5116992;27;20036;-69
2023/05/14 01:50:51;;;;;;;15.25;12.48;;;;;;;13.08;81.19;101734.22;5127879;27;20037;-70
2023/05/14 01:53:19;;;;;;;14.75;12.25;;;;;;;13.01;80.83;101737.97;5120596;27;20036;-70
2023/05/14 01:55:46;;;;;;;15.52;12.38;;;;;;;12.96;80.97;101732.78;5107602;27;20558;-69
2023/05/14 01:58:13;;;;;;;18.27;12.93;;;;;;;12.94;81.79;101728.41;5126893;27;20040;-69
2023/05/14 02:00:40;;;;;;;19.02;12.68;;;;;;;12.93;81.63;101731.97;5133243;27;20043;-69
2023/05/14 02:03:07;;;;;;;18.77;12.27;;;;;;;12.88;81.64;101724.16;5117010;27;20035;-69
2023/05/14 02:05:35;;;;;;;15.75;12.75;;;;;;;12.86;81.83;101723.34;5112436;27;20545;-70
2023/05/14 02:08:02;;;;;;;16.27;12.85;;;;;;;12.82;81.99;101724.31;5113866;27;20248;-70
2023/05/14 02:10:29;;;;;;;17.50;13.23;;;;;;;12.80;81.88;101719.09;5141782;27;20044;-69
2023/05/14 02:12:56;;;;;;;16.30;12.80;;;;;;;12.79;82.11;101717.34;5137722;27;20036;-69
2023/05/14 02:15:23;;;;;;;15.57;12.77;;;;;;;12.76;82.37;101717.41;5109392;27;20119;-70
2023/05/14 02:17:50;;;;;;;17.38;14.20;;;;;;;12.77;82.18;101720.94;5104705;27;20040;-70
2023/05/14 02:20:18;;;;;;;19.13;12.38;;;;;;;12.74;81.91;101716.56;5108514;27;20044;-71
2023/05/14 02:22:45;;;;;;;16.83;13.20;;;;;;;12.73;81.87;101715.72;5118934;27;20862;-71
2023/05/14 02:25:12;;;;;;;17.95;13.65;;;;;;;12.66;82.06;101718.56;5107610;27;20036;-70
2023/05/14 02:27:39;;;;;;;16.02;13.48;;;;;;;12.59;81.86;101723.13;5107089;27;20047;-70
2023/05/14 02:30:07;;;;;;;16.98;13.52;;;;;;;12.53;82.12;101720.63;5125379;27;20555;-71
2023/05/14 02:32:34;;;;;;;18.15;13.40;;;;;;;12.45;82.23;101719.97;5104914;27;20075;-71
2023/05/14 02:35:02;;;;;;;18.88;14.52;;;;;;;12.41;82.72;101709.44;5106649;27;20036;-70
2023/05/14 02:37:29;;;;;;;16.20;13.52;;;;;;;12.41;82.69;101712.09;5121176;27;20074;-70
2023/05/14 02:39:56;;;;;;;21.02;13.88;;;;;;;12.39;82.78;101705.97;5118311;27;20036;-70
2023/05/14 02:42:23;;;;;;;18.60;13.88;;;;;;;12.37;82.87;101702.47;5113027;27;20040;-71
2023/05/14 02:44:51;;;;;;;18.65;14.15;;;;;;;12.34;82.82;101701.69;5122838;27;20547;-71
2023/05/14 02:47:18;;;;;;;17.35;13.73;;;;;;;12.33;83.06;101702.59;5115505;27;20089;-71
2023/05/14 02:49:45;;;;;;;17.17;13.55;;;;;;;12.29;83.11;101712.38;5142684;27;20090;-70
2023/05/14 02:52:12;;;;;;;16.98;13.82;;;;;;;12.25;82.84;101713.38;5127931;27;20047;-71
2023/05/14 02:54:39;;;;;;;15.98;13.88;;;;;;;12.19;82.73;101708.22;5123770;27;20044;-71
2023/05/14 02:57:06;;;;;;;17.73;14.70;;;;;;;12.17;82.17;101712.66;5110524;27;20039;-71
2023/05/14 02:59:34;;;;;;;18.30;14.70;;;;;;;12.12;82.24;101707.47;5141980;27;20636;-71
2023/05/14 03:02:01;;;;;;;20.17;14.18;;;;;;;12.07;82.34;101710.22;5128074;27;20035;-71
2023/05/14 03:04:29;;;;;;;17.92;15.23;;;;;;;12.03;82.31;101700.66;5118494;27;20108;-71
2023/05/14 03:06:56;;;;;;;18.30;14.68;;;;;;;11.99;82.00;101708.69;5109210;28;20948;-71
2023/05/14 03:09:23;;;;;;;17.67;14.18;;;;;;;11.93;82.35;101699.09;5121521;27;20110;-71
2023/05/14 03:11:50;;;;;;;21.00;14.32;;;;;;;11.89;82.18;101698.28;5127192;27;20086;-71
2023/05/14 03:14:17;;;;;;;18.35;15.52;;;;;;;11.83;82.25;101692.25;5106189;27;20040;-71
2023/05/14 03:16:44;;;;;;;18.60;15.07;;;;;;;11.76;82.33;101687.09;5106626;27;20465;-70
2023/05/14 03:19:11;;;;;;;20.55;15.52;;;;;;;11.71;82.38;101686.34;5106150;27;20086;-70
2023/05/14 03:21:39;;;;;;;17.73;15.13;;;;;;;11.68;82.67;101685.53;5108345;27;20040;-69
2023/05/14 03:24:06;;;;;;;20.63;15.15;;;;;;;11.61;82.93;101692.72;5107394;27;20040;-69
2023/05/14 03:26:33;;;;;;;20.05;15.57;;;;;;;11.56;82.88;101694.56;5113450;27;20324;-70
2023/05/14 03:29:02;;;;;;;18.00;16.05;;;;;;;11.50;83.29;101690.28;5116299;27;20537;-71
2023/05/14 03:31:30;;;;;;;22.25;14.90;;;;;;;11.44;83.03;101680.75;5118920;27;20569;-69
2023/05/14 03:33:57;;;;;;;18.83;15.15;;;;;;;11.39;83.17;101682.59;5109901;27;20576;-70
2023/05/14 03:36:24;;;;;;;20.85;16.05;;;;;;;11.37;83.23;101683.53;5115103;27;20040;-70
2023/05/14 03:38:51;;;;;;;21.42;15.60;;;;;;;11.32;83.34;101681.00;5129532;27;20161;-70
2023/05/14 03:41:20;;;;;;;19.70;16.58;;;;;;;11.30;83.50;101688.91;5112918;27;20032;-69
2023/05/14 03:43:47;;;;;;;25.77;17.17;;;;;;;11.25;83.76;101677.59;5111909;27;20035;-70
2023/05/14 03:46:14;;;;;;;21.80;16.65;;;;;;;11.24;83.89;101678.50;5111211;27;20068;-71
2023/05/14 03:48:41;;;;;;;19.27;17.02;;;;;;;11.24;83.84;101681.13;5117039;27;20513;-70
2023/05/14 03:51:08;;;;;;;19.77;17.05;;;;;;;11.24;83.88;101677.63;5120240;27;20076;-70
2023/05/14 03:53:35;;;;;;;21.73;16.70;;;;;;;11.23;83.76;101679.38;5125160;27;20043;-70
2023/05/14 03:56:03;;;;;;;19.52;17.33;;;;;;;11.19;83.52;101673.31;5125787;27;20491;-70
2023/05/14 03:58:30;;;;;;;22.20;17.23;;;;;;;11.18;83.90;101671.56;5126880;27;20028;-70
2023/05/14 04:00:59;;;;;;;19.80;17.00;;;;;;;11.17;84.04;101675.09;5114091;27;20123;-71
2023/05/14 04:03:26;;;;;;;20.50;16.25;;;;;;;11.17;84.08;101672.47;5127242;27;20035;-70
2023/05/14 04:05:53;;;;;;;22.17;17.00;;;;;;;11.15;84.15;101673.41;5124600;27;20052;-70
2023/05/14 04:08:20;;;;;;;23.10;16.35;;;;;;;11.15;84.34;101673.41;5124956;27;20047;-72
2023/05/14 04:10:49;;;;;;;19.45;16.23;;;;;;;11.16;84.34;101678.63;5116783;27;20419;-71
2023/05/14 04:13:16;;;;;;;19.25;16.38;;;;;;;11.15;84.07;101674.25;5125559;27;20040;-73
2023/05/14 04:15:43;;;;;;;22.15;16.20;;;;;;;11.15;84.23;101682.19;5108845;27;20554;-73
2023/05/14 04:18:10;;;;;;;20.10;15.93;;;;;;;11.15;84.19;101678.69;5107732;27;20032;-73
2023/05/14 04:20:37;;;;;;;18.63;15.23;;;;;;;11.17;84.06;101679.53;5107196;27;20085;-73
2023/05/14 04:23:05;;;;;;;20.92;15.52;;;;;;;11.19;84.02;101686.50;5105076;27;20066;-73
2023/05/14 04:25:32;;;;;;;19.38;16.00;;;;;;;11.25;83.93;101684.63;5108302;27;20154;-73
2023/05/14 04:27:59;;;;;;;20.73;15.88;;;;;;;11.29;83.83;101687.19;5103685;27;20036;-72
2023/05/14 04:30:26;;;;;;;20.30;15.43;;;;;;;11.37;83.44;101692.31;5116034;27;20036;-69
2023/05/14 04:32:53;;;;;;;19.15;16.45;;;;;;;11.43;83.41;101688.69;5114795;27;20046;-73
2023/05/14 04:35:20;;;;;;;19.20;16.23;;;;;;;11.50;83.20;101685.00;5120679;27;20150;-70
2023/05/14 04:37:50;;;;;;;18.55;15.88;;;;;;;11.59;83.34;101682.19;5122737;27;20036;-70
2023/05/14 04:40:17;;;;;;;19.80;16.10;;;;;;;11.67;83.40;101686.44;5126689;27;20040;-73
2023/05/14 04:42:44;;;;;;;18.50;16.23;;;;;;;11.74;83.37;101691.56;5137621;27;20657;-71
2023/05/14 04:45:12;;;;;;;22.02;16.65;;;;;;;11.84;83.33;101688.72;5125735;27;20906;-71
2023/05/14 04:47:40;;;;;;;18.70;15.38;;;;;;;12.01;83.17;101685.72;5126430;27;20951;-70
2023/05/14 04:50:08;;;;;;;17.58;15.60;;;;;;;12.36;82.44;101684.88;5120469;27;20531;-72
2023/05/14 04:52:35;;;;;;;20.45;15.25;;;;;;;12.55;81.66;101685.31;5123717;27;20047;-70
2023/05/14 04:55:02;;;;;;;19.67;16.02;;;;;;;12.61;81.55;101681.63;5126010;27;20042;-69
2023/05/14 04:57:29;;;;;;;21.55;15.65;;;;;;;12.70;81.43;101678.75;5122031;27;20045;-70
2023/05/14 04:59:56;;;;;;;18.15;14.50;;;;;;;12.94;81.03;101678.13;5121053;27;20131;-70
2023/05/14 05:02:24;;;;;;;22.55;15.23;;;;;;;13.07;80.37;101678.69;5126969;27;20042;-71
2023/05/14 05:04:51;;;;;;;22.02;14.40;;;;;;;13.50;79.14;101677.50;5125528;27;20568;-70
2023/05/14 05:07:18;;;;;;;18.13;14.77;;;;;;;13.98;77.03;101676.94;5122684;27;20067;-70
2023/05/14 05:09:45;;;;;;;16.27;13.88;;;;;;;14.28;75.73;101678.66;5127476;27;20098;-71
2023/05/14 05:12:14;;;;;;;17.85;13.57;;;;;;;14.44;75.40;101673.69;5129050;27;20451;-72
2023/05/14 05:14:41;;;;;;;15.20;12.90;;;;;;;14.47;75.17;101678.91;5122132;27;20094;-72
2023/05/14 05:17:08;;;;;;;15.10;13.10;;;;;;;14.96;74.19;101678.19;5125767;27;20040;-72
2023/05/14 05:19:35;;;;;;;21.17;12.65;;;;;;;16.41;70.70;101680.63;5124661;27;20039;-72
2023/05/14 05:22:10;;;;;;;14.63;12.02;;;;;;;17.73;65.73;101677.53;5126183;27;20533;-71
2023/05/14 05:24:37;;;;;;;18.55;12.52;;;;;;;17.84;63.73;101677.03;5125784;27;20127;-71
2023/05/14 05:27:04;;;;;;;14.00;12.50;;;;;;;18.30;61.57;101681.97;5124959;27;20469;-70
2023/05/14 05:29:33;;;;;;;16.17;12.10;;;;;;;19.57;57.92;101674.53;5124384;27;20032;-72
2023/05/14 05:32:01;;;;;;;15.80;12.27;;;;;;;20.68;55.24;101681.59;5127039;27;20028;-73
2023/05/14 05:34:28;;;;;;;14.20;10.45;;;;;;;21.63;53.87;101674.03;5142005;27;20042;-73
2023/05/14 05:36:55;;;;;;;13.35;10.35;;;;;;;22.77;50.26;101679.09;5126032;27;20048;-73
2023/05/14 05:39:22;;;;;;;11.20;9.95;;;;;;;23.48;47.43;101673.25;5141307;27;20382;-74
2023/05/14 05:41:49;;;;;;;12.88;9.88;;;;;;;23.98;45.61;101673.25;5144005;27;20054;-72
2023/05/14 05:44:16;;;;;;;11.32;10.02;;;;;;;24.20;43.93;101679.75;5126862;27;20042;-72
2023/05/14 05:46:43;;;;;;;13.98;9.55;;;;;;;24.50;43.60;101675.69;5128153;27;20809;-72
2023/05/14 05:49:10;;;;;;;14.88;9.98;;;;;;;24.84;43.70;101673.09;5143753;27;20055;-73
2023/05/14 05:51:37;;;;;;;15.30;10.02;;;;;;;25.45;42.61;101674.63;5119781;27;20741;-73
2023/05/14 05:54:04;;;;;;;13.68;8.98;;;;;;;25.88;41.02;101667.56;5127876;27;20036;-73
2023/05/14 05:56:31;;;;;;;13.00;9.32;;;;;;;26.00;40.22;101671.09;5128806;27;20039;-73
2023/05/14 05:58:58;;;;;;;16.42;8.88;;;;;;;25.35;41.10;101673.63;5128036;27;20042;-71
2023/05/14 06:01:25;;;;;;;13.63;9.00;;;;;;;23.25;43.36;101673.06;5143436;27;20040;-72
2023/05/14 06:03:52;;;;;;;12.10;9.23;;;;;;;20.82;47.68;101685.28;5125753;27;20364;-72
2023/05/14 06:06:20;;;;;;;14.70;10.45;;;;;;;19.22;51.99;101687.06;5138043;27;20527;-72
2023/05/14 06:08:47;;;;;;;12.90;10.90;;;;;;;18.15;55.35;101680.94;5126652;27;20044;-72
2023/05/14 06:11:15;;;;;;;14.18;10.25;;;;;;;17.43;58.17;101691.34;5122343;27;20032;-71
2023/05/14 06:13:43;;;;;;;15.88;11.50;;;;;;;16.87;60.65;101693.78;5123315;27;20133;-71
2023/05/14 06:16:11;;;;;;;16.50;11.35;;;;;;;16.45;61.74;101692.88;5124435;27;20063;-71
2023/05/14 06:18:38;;;;;;;14.13;11.55;;;;;;;16.16;63.02;101696.75;5151688;27;20036;-71
2023/05/14 06:21:05;;;;;;;19.63;12.60;;;;;;;16.04;64.32;101700.75;5123365;27;20046;-71
2023/05/14 06:23:32;;;;;;;13.68;11.82;;;;;;;15.93;65.51;101697.63;5122455;27;20038;-73
2023/05/14 06:25:59;;;;;;;15.15;12.40;;;;;;;15.91;65.95;101695.03;5127729;27;20136;-73
2023/05/14 06:28:26;;;;;;;13.85;12.35;;;;;;;15.96;66.04;101697.53;5124149;27;20070;-71
2023/05/14 06:30:53;;;;;;;17.33;13.77;;;;;;;16.03;66.58;101699.00;5124156;27;20534;-74
2023/05/14 06:33:28;;;;;;;16.40;12.73;;;;;;;16.05;66.72;101701.63;5126585;27;20046;-72
2023/05/14 06:35:58;;;;;;;16.70;13.10;;;;;;;15.98;66.27;101701.84;5126547;27;20625;-72
2023/05/14 06:38:25;;;;;;;15.52;13.15;;;;;;;15.98;66.35;101706.31;5123585;27;20042;-70
2023/05/14 06:40:52;;;;;;;16.05;12.57;;;;;;;16.00;66.55;101693.81;5127717;27;20922;-71
2023/05/14 06:43:20;;;;;;;14.13;11.27;;;;;;;15.99;65.96;101702.72;5127465;27;20040;-70
2023/05/14 06:45:49;;;;;;;18.75;12.02;;;;;;;16.03;65.81;101698.16;5121277;27;20547;-71
2023/05/14 06:48:17;;;;;;;14.25;12.05;;;;;;;16.10;66.25;101697.84;5124945;27;20046;-71
2023/05/14 06:50:48;;;;;;;18.30;13.05;;;;;;;16.25;66.54;101699.03;5121953;27;20562;-71
2023/05/14 06:53:15;;;;;;;14.63;12.05;;;;;;;16.35;65.73;101696.84;5125951;27;20046;-71
2023/05/14 06:55:42;;;;;;;15.88;12.05;;;;;;;16.39;65.71;101690.47;5122682;27;20063;-70
2023/05/14 06:58:10;;;;;;;13.07;11.00;;;;;;;16.46;65.99;101691.09;5122021;27;20038;-73
2023/05/14 07:00:37;;;;;;;17.58;11.48;;;;;;;16.57;65.56;101691.50;5119417;27;20035;-70
2023/05/14 07:03:04;;;;;;;12.85;10.82;;;;;;;16.66;65.07;101692.06;5126669;27;20042;-70
2023/05/14 07:05:31;;;;;;;14.30;10.98;;;;;;;16.70;65.26;101697.19;5124279;27;20040;-70
2023/05/14 07:07:58;;;;;;;16.00;11.70;;;;;;;16.78;65.13;101680.88;5117570;27;20040;-69
2023/05/14 07:10:25;;;;;;;12.43;11.02;;;;;;;16.88;64.86;101684.88;5117932;27;20423;-70
2023/05/14 07:12:52;;;;;;;14.07;12.10;;;;;;;17.00;65.45;101686.16;5123547;27;20055;-70
2023/05/14 07:15:20;;;;;;;15.98;13.43;;;;;;;17.05;65.12;101684.16;5139957;27;20043;-70
2023/05/14 07:17:47;;;;;;;17.92;13.55;;;;;;;17.07;65.26;101684.09;5143634;27;20032;-73
2023/05/14 07:20:15;;;;;;;18.15;13.70;;;;;;;17.08;65.73;101683.16;5128891;27;20868;-70
2023/05/14 07:22:42;;;;;;;18.63;12.63;;;;;;;17.14;65.08;101682.03;5122328;27;20590;-70
2023/05/14 07:25:09;;;;;;;18.70;14.13;;;;;;;17.20;65.50;101676.41;5124147;27;20032;-70
2023/05/14 07:27:36;;;;;;;15.30;13.40;;;;;;;17.22;66.57;101688.72;5124840;27;20064;-70
2023/05/14 07:30:04;;;;;;;17.85;13.50;;;;;;;17.30;66.16;101682.19;5139276;27;20103;-70
2023/05/14 07:32:31;;;;;;;20.42;13.50;;;;;;;17.38;65.75;101686.22;5124233;27;21050;-70
2023/05/14 07:34:58;;;;;;;18.23;13.23;;;;;;;17.45;65.46;101684.16;5129012;27;20043;-70
2023/05/14 07:37:25;;;;;;;16.50;13.07;;;;;;;17.56;64.74;101680.13;5145751;27;20039;-70
2023/05/14 07:39:52;;;;;;;15.45;13.23;;;;;;;17.59;64.20;101682.66;5140147;27;20035;-70
2023/05/14 07:42:19;;;;;;;16.90;13.05;;;;;;;17.64;64.31;101675.31;5124800;27;20580;-70
2023/05/14 07:45:01;;;;;;;16.67;12.73;;;;;;;17.69;64.10;101683.97;5121024;27;20103;-70
2023/05/14 07:47:28;;;;;;;18.88;12.88;;;;;;;17.69;64.31;101681.28;5122575;27;20047;-70
2023/05/14 07:49:56;;;;;;;21.42;13.38;;;;;;;17.73;64.76;101679.34;5125446;27;20515;-70
2023/05/14 07:52:24;;;;;;;20.20;13.40;;;;;;;17.78;64.43;101675.53;5156635;27;20073;-70
2023/05/14 07:54:51;;;;;;;17.30;12.73;;;;;;;17.76;64.85;101672.06;5120622;27;20071;-71
2023/05/14 07:57:19;;;;;;;14.98;12.73;;;;;;;17.74;64.22;101673.94;5109076;27;20031;-71
2023/05/14 07:59:47;;;;;;;16.15;12.70;;;;;;;17.56;64.25;101678.31;5118756;27;20051;-71
2023/05/14 08:02:15;;;;;;;17.48;12.50;;;;;;;17.40;64.54;101678.16;5122780;27;20122;-71
2023/05/14 08:04:43;;;;;;;14.45;12.10;;;;;;;17.48;64.72;101672.47;5126213;27;20102;-70
2023/05/14 08:07:11;;;;;;;16.75;11.73;;;;;;;17.62;64.33;101667.38;5122595;27;20035;-70
2023/05/14 08:09:38;;;;;;;14.90;11.85;;;;;;;17.78;64.46;101678.19;5123640;27;20043;-71
2023/05/14 08:12:06;;;;;;;15.75;12.55;;;;;;;17.94;64.10;101673.00;5117224;27;20032;-71
2023/05/14 08:14:33;;;;;;;16.70;12.00;;;;;;;18.08;63.43;101674.13;5120686;27;20075;-70
2023/05/14 08:17:00;;;;;;;15.57;11.75;;;;;;;18.14;63.89;101665.84;5105670;27;20323;-71
2023/05/14 08:19:27;;;;;;;13.68;11.52;;;;;;;18.28;62.10;101673.16;5116959;27;20591;-70
2023/05/14 08:21:54;;;;;;;17.00;11.48;;;;;;;18.36;61.33;101668.31;5124899;27;20137;-71
2023/05/14 08:24:21;;;;;;;13.65;10.20;;;;;;;18.47;60.84;101670.41;5136391;27;20487;-71
2023/05/14 08:26:48;;;;;;;15.60;9.30;;;;;;;18.53;60.20;101667.47;5120535;27;20040;-71
2023/05/14 08:29:15;;;;;;;11.98;9.55;;;;;;;18.64;59.75;101672.25;5124130;27;20039;-71
2023/05/14 08:31:43;;;;;;;11.25;8.88;;;;;;;18.81;59.51;101676.72;5118419;27;20032;-70
2023/05/14 08:34:10;;;;;;;14.32;9.43;;;;;;;19.01;58.99;101678.38;5124535;27;20038;-71
2023/05/14 08:36:38;;;;;;;11.85;9.30;;;;;;;19.09;58.55;101680.63;5113108;27;20091;-70
2023/05/14 08:39:06;;;;;;;11.13;8.77;;;;;;;19.19;56.99;101676.53;5110337;28;20032;-70
2023/05/14 08:41:34;;;;;;;12.20;9.00;;;;;;;19.29;57.20;101670.69;5122019;27;20089;-70
2023/05/14 08:44:13;;;;;;;14.55;9.07;;;;;;;19.36;57.46;101664.09;5142644;27;20131;-70
2023/05/14 08:46:40;;;;;;;12.43;9.50;;;;;;;19.48;56.95;101660.75;5127366;27;20551;-70
2023/05/14 08:49:27;;;;;;;10.82;8.85;;;;;;;19.58;55.93;101665.56;5128311;27;20044;-71
2023/05/14 08:51:55;;;;;;;11.25;8.75;;;;;;;19.67;56.46;101660.56;5131171;27;20085;-70
2023/05/14 08:54:23;;;;;;;11.40;8.88;;;;;;;19.76;56.75;101653.84;5131307;27;20043;-70
2023/05/14 08:56:51;;;;;;;11.15;9.27;;;;;;;19.90;57.06;101658.44;5130339;27;20039;-70
2023/05/14 08:59:19;;;;;;;12.32;9.13;;;;;;;20.03;57.41;101658.59;5126722;27;20044;-70
2023/05/14 09:01:50;;;;;;;11.70;9.45;;;;;;;20.14;57.51;101658.00;5117202;27;20046;-70
2023/05/14 09:04:23;;;;;;;13.18;9.40;;;;;;;20.28;57.06;101659.88;5134138;27;20875;-70
2023/05/14 09:06:53;;;;;;;13.27;9.50;;;;;;;20.39;56.70;101648.50;5130531;27;20036;-71
2023/05/14 09:09:21;;;;;;;11.60;8.90;;;;;;;20.51;56.26;101654.94;5109322;27;20117;-70
2023/05/14 09:11:51;;;;;;;11.50;8.98;;;;;;;20.66;56.52;101655.84;5110173;27;20071;-70
2023/05/14 09:14:19;;;;;;;12.20;9.70;;;;;;;20.76;55.87;101657.91;5143738;27;20632;-70
2023/05/14 09:16:49;;;;;;;11.65;8.98;;;;;;;20.84;55.03;101657.47;5126054;27;20504;-70
2023/05/14 09:19:17;;;;;;;12.48;9.60;;;;;;;20.87;55.12;101653.72;5116295;27;20063;-70
2023/05/14 09:21:48;;;;;;;21.10;9.88;;;;;;;20.94;56.27;101653.25;5146723;27;20300;-70
2023/05/14 09:24:30;;;;;;;14.07;9.57;;;;;;;21.04;56.45;101639.28;5146194;27;20032;-70
2023/05/14 09:26:57;;;;;;;12.23;9.55;;;;;;;21.14;55.61;101644.91;5146404;27;20044;-71
2023/05/14 09:29:27;;;;;;;13.38;10.00;;;;;;;21.23;55.13;101639.84;5130518;27;20144;-70
2023/05/14 09:31:56;;;;;;;12.32;9.02;;;;;;;21.32;54.80;101637.56;5130267;27;20118;-70
2023/05/14 09:34:29;;;;;;;14.02;8.88;;;;;;;21.41;54.16;101639.66;5145229;27;20054;-70
2023/05/14 09:37:02;;;;;;;12.00;9.02;;;;;;;21.48;54.38;101627.56;5128609;27;20039;-70
2023/05/14 09:39:31;;;;;;;12.88;9.48;;;;;;;21.55;54.36;101630.72;5128595;27;21028;-70
2023/05/14 09:41:58;;;;;;;12.75;9.35;;;;;;;21.60;54.45;101633.13;5129655;27;20043;-70
2023/05/14 09:44:26;;;;;;;13.30;9.10;;;;;;;21.69;54.69;101630.72;5127914;27;20070;-70
2023/05/14 09:46:54;;;;;;;14.63;9.88;;;;;;;21.78;55.44;101625.72;5113720;27;20071;-71
2023/05/14 09:49:21;;;;;;;12.82;9.05;;;;;;;21.85;53.62;101624.34;5105686;27;20078;-70
2023/05/14 09:51:49;;;;;;;9.77;7.80;;;;;;;21.93;52.76;101629.22;5109622;27;20051;-70
2023/05/14 09:54:17;;;;;;;14.32;8.88;;;;;;;21.94;52.70;101620.19;5107823;28;20051;-70
2023/05/14 09:56:44;;;;;;;11.50;8.02;;;;;;;21.94;53.30;101623.72;5109597;27;20605;-70
2023/05/14 09:59:11;;;;;;;8.32;5.82;;;;;;;21.94;50.01;101620.19;5126092;27;20105;-70
2023/05/14 10:01:41;;;;;;;8.90;5.70;;;;;;;22.00;48.17;101622.47;5108848;27;20524;-70
2023/05/14 10:04:10;;;;;;;9.45;5.70;;;;;;;22.02;49.56;101617.84;5132743;27;20520;-70
2023/05/14 10:06:40;;;;;;;6.75;6.00;;;;;;;22.17;50.53;101616.84;5141996;27;20051;-70
2023/05/14 10:09:12;;;;;;;8.95;6.38;;;;;;;22.16;49.56;101617.81;5145683;27;20063;-70
2023/05/14 10:11:44;;;;;;;9.63;6.57;;;;;;;22.22;47.90;101613.84;5129419;27;20140;-70
2023/05/14 10:14:28;;;;;;;7.50;6.80;;;;;;;22.22;49.06;101611.16;5130137;27;20050;-70
2023/05/14 10:16:58;;;;;;;;;;;;;;;22.20;47.74;101610.41;5130391;27;20037;-70
2023/05/14 10:19:26;;;;;;;11.65;6.78;;;;;;;22.09;49.19;101610.25;5141047;27;19977;-70
2023/05/14 10:22:04;;;;;;;7.95;5.75;;;;;;;22.17;49.24;101613.28;5145265;27;20066;-70
2023/05/14 10:24:33;;;;;;;12.00;7.00;;;;;;;22.31;49.25;101605.16;5162492;27;20515;-70
2023/05/14 10:27:01;;;;;;;10.85;6.63;;;;;;;22.39;48.31;101601.09;5145690;27;20044;-70
2023/05/14 10:29:37;;;;;;;10.05;6.60;;;;;;;22.56;49.34;101603.50;5145974;27;20051;-70
2023/05/14 10:32:07;;;;;;;10.65;6.00;;;;;;;22.47;48.48;101590.69;5129547;27;20039;-72
2023/05/14 10:34:42;;;;;;;11.13;6.28;;;;;;;22.39;48.47;101591.19;5163694;27;20040;-70
2023/05/14 10:37:12;;;;;;;9.48;6.70;;;;;;;22.50;48.18;101582.44;5133701;27;20036;-69
2023/05/14 10:39:48;;;;;;;10.50;6.93;;;;;;;22.60;47.41;101591.56;5128418;27;20097;-69
2023/05/14 10:42:23;;;;;;;10.50;6.60;;;;;;;22.61;46.61;101581.69;5125023;27;20174;-70
2023/05/14 10:44:56;;;;;;;7.57;6.70;;;;;;;22.64;46.51;101589.53;5121646;27;20548;-70
2023/05/14 10:47:28;;;;;;;11.05;6.40;;;;;;;22.72;47.66;101594.38;5113946;27;20564;-70
2023/05/14 10:49:58;;;;;;;5.95;5.15;;;;;;;22.86;47.72;101583.50;5126118;27;20043;-70
2023/05/14 10:52:25;;;;;;;7.40;6.47;;;;;;;23.10;48.31;101575.50;5126029;27;20040;-70
2023/05/14 10:55:01;;;;;;;7.22;5.35;;;;;;;23.32;46.58;101582.03;5125508;27;20403;-70
2023/05/14 10:57:31;;;;;;;7.35;6.53;;;;;;;23.43;46.70;101570.53;5140000;27;20043;-70
2023/05/14 11:00:00;;;;;;;7.65;6.07;;;;;;;23.57;45.70;101581.09;5141537;27;20542;-70
2023/05/14 11:02:35;;;;;;;6.90;5.10;;;;;;;23.67;42.47;101575.03;5121196;27;20654;-70
2023/05/14 11:05:09;;;;;;;9.43;5.43;;;;;;;23.60;41.76;101574.66;5121507;27;20728;-70
2023/05/14 11:07:39;;;;;;;7.38;5.75;;;;;;;23.53;43.06;101571.56;5123067;27;20039;-70
2023/05/14 11:10:12;;;;;;;6.47;5.20;;;;;;;23.66;42.79;101565.25;5125314;27;20977;-70
2023/05/14 11:12:42;;;;;;;6.37;4.47;;;;;;;23.77;40.76;101562.59;5117382;27;20068;-70
2023/05/14 11:15:12;;;;;;;4.55;4.13;;;;;;;23.93;41.30;101569.53;5114598;27;20079;-70
2023/05/14 11:17:43;;;;;;;6.05;4.05;;;;;;;24.07;41.16;101563.13;5119344;27;20769;-70
2023/05/14 11:20:11;;;;;;;6.95;3.97;;;;;;;24.25;39.35;101558.19;5123003;27;20491;-70